Time;durP1;ratioP1;P1;durP2;ratioP2;P2;SDS_P1;SDS_P2;PMS_P1;PMS_P2;Temp;Humidity;BMP_temperature;BMP_pressure;BME280_temperature;BME280_humidity;BME280_pressure;Samples;Min_cycle;Max_cycle;Signal;HPM_P1;HPM_P2
2022/12/23 00:01:51;;;;;;;12.10;9.15;;;;;;;7.71;96.60;99100.72;10594032;27;20800;-80
2022/12/23 00:06:54;;;;;;;18.92;10.10;;;;;;;7.88;97.21;99093.84;10604765;27;20047;-81
2022/12/23 00:17:19;;;;;;;18.33;9.53;;;;;;;7.89;96.45;99090.19;10625537;27;20142;-80
2022/12/23 00:23:03;;;;;;;15.90;11.55;;;;;;;7.82;97.50;99092.59;10622718;27;20074;-80
2022/12/23 00:28:01;;;;;;;16.87;11.57;;;;;;;7.98;95.70;99086.69;10626788;27;20047;-81
2022/12/23 00:33:04;;;;;;;14.35;10.25;;;;;;;7.98;96.96;99089.38;10603912;27;20284;-80
2022/12/23 00:38:07;;;;;;;14.73;11.68;;;;;;;8.16;96.02;99092.19;10610860;27;20051;-81
2022/12/23 00:43:11;;;;;;;16.27;12.23;;;;;;;8.02;97.63;99095.28;10592323;27;20040;-79
2022/12/23 00:53:35;;;;;;;19.35;13.68;;;;;;;7.75;99.61;99091.44;10607757;27;20087;-81
2022/12/23 00:58:39;;;;;;;25.08;15.18;;;;;;;7.88;98.03;99085.84;10618592;27;20043;-80
2022/12/23 01:09:02;;;;;;;31.70;18.05;;;;;;;8.05;96.77;99103.03;10606188;27;20050;-80
2022/12/23 01:14:08;;;;;;;36.75;18.30;;;;;;;8.01;97.41;99110.50;10593324;28;20049;-81
2022/12/23 01:19:11;;;;;;;26.77;15.73;;;;;;;8.09;96.95;99104.41;10594022;27;20036;-78
2022/12/23 01:24:14;;;;;;;29.75;17.27;;;;;;;8.02;96.54;99098.78;10614175;27;20047;-81
2022/12/23 01:29:18;;;;;;;29.52;15.77;;;;;;;7.92;98.39;99092.59;10606246;27;20044;-79
2022/12/23 01:34:21;;;;;;;29.17;15.82;;;;;;;7.86;98.56;99093.97;10621131;27;20039;-79
2022/12/23 01:39:24;;;;;;;30.65;20.98;;;;;;;7.87;98.90;99108.19;10609693;27;20043;-81
2022/12/23 01:44:49;;;;;;;38.95;19.88;;;;;;;7.86;98.68;99111.84;10611798;27;20035;-81
2022/12/23 01:49:56;;;;;;;36.17;19.70;;;;;;;7.79;98.54;99116.06;10589587;28;20415;-80
2022/12/23 01:54:59;;;;;;;45.47;24.42;;;;;;;8.07;97.09;99114.44;10592327;28;20035;-80
2022/12/23 02:05:25;;;;;;;36.97;17.75;;;;;;;7.70;99.18;99115.91;10608306;27;20036;-80
2022/12/23 02:10:42;;;;;;;45.33;22.58;;;;;;;7.74;99.13;99113.81;10621049;27;20080;-81
2022/12/23 02:21:35;;;;;;;35.80;17.67;;;;;;;7.88;97.85;99120.59;10598706;27;20451;-81
2022/12/23 02:27:01;;;;;;;39.40;19.80;;;;;;;8.03;97.25;99137.91;10584801;28;20093;-79
2022/12/23 02:32:10;;;;;;;40.67;20.48;;;;;;;7.95;97.34;99127.94;10607137;28;20042;-82
2022/12/23 02:37:20;;;;;;;42.88;20.20;;;;;;;7.95;97.85;99135.97;10604142;28;20488;-82
2022/12/23 02:42:25;;;;;;;27.25;13.85;;;;;;;7.71;99.24;99133.66;10608250;28;20050;-83
2022/12/23 02:47:35;;;;;;;26.45;15.52;;;;;;;7.87;98.24;99132.25;10586469;28;20367;-84
2022/12/23 02:52:41;;;;;;;11.55;7.88;;;;;;;7.62;99.88;99138.94;10587086;28;20046;-83
2022/12/23 02:57:47;;;;;;;21.55;11.85;;;;;;;7.75;99.34;99146.72;10568768;28;20043;-82
2022/12/23 03:02:51;;;;;;;27.92;15.20;;;;;;;8.06;97.53;99134.97;10573268;28;20497;-83
2022/12/23 03:07:59;;;;;;;30.50;15.68;;;;;;;8.06;97.35;99145.66;10595827;28;20043;-82
2022/12/23 03:13:10;;;;;;;35.00;18.73;;;;;;;7.89;100.00;99147.19;10612315;27;20406;-83
2022/12/23 03:18:28;;;;;;;29.50;17.42;;;;;;;7.95;100.00;99156.47;10607517;27;20055;-84
2022/12/23 03:23:37;;;;;;;31.02;15.27;;;;;;;7.89;100.00;99163.22;10592460;27;20046;-83
2022/12/23 03:28:44;;;;;;;20.73;12.68;;;;;;;7.83;100.00;99162.94;10591323;27;20055;-78
2022/12/23 03:33:54;;;;;;;25.92;15.43;;;;;;;7.75;100.00;99176.97;10620341;27;20039;-83
2022/12/23 03:38:57;;;;;;;28.80;17.23;;;;;;;8.08;99.85;99180.31;10631320;27;20407;-81
2022/12/23 03:44:05;;;;;;;38.05;20.52;;;;;;;8.06;98.54;99179.59;10609994;27;20040;-80
2022/12/23 03:49:15;;;;;;;33.38;21.08;;;;;;;7.95;98.88;99188.56;10604943;27;20051;-82
2022/12/23 03:54:24;;;;;;;26.92;16.13;;;;;;;8.10;97.78;99187.22;10610797;27;20046;-82
2022/12/23 03:59:30;;;;;;;30.42;18.17;;;;;;;8.05;98.58;99194.78;10610651;27;20044;-81
2022/12/23 04:04:47;;;;;;;21.88;13.48;;;;;;;8.02;98.54;99203.09;10629041;27;20039;-80
2022/12/23 04:09:52;;;;;;;20.17;13.38;;;;;;;8.06;97.55;99201.81;10616903;27;20047;-80
2022/12/23 04:14:55;;;;;;;18.92;12.25;;;;;;;8.15;96.88;99205.53;10633654;27;20039;-79
2022/12/23 04:19:59;;;;;;;20.23;11.15;;;;;;;7.85;98.22;99214.44;10629562;27;20031;-78
2022/12/23 04:25:02;;;;;;;19.23;11.77;;;;;;;8.05;99.04;99223.38;10651620;27;20046;-78
2022/12/23 04:30:07;;;;;;;12.98;8.85;;;;;;;8.12;97.73;99220.03;10653043;27;20109;-79
2022/12/23 04:35:12;;;;;;;14.05;9.25;;;;;;;8.13;97.43;99216.34;10639907;27;20044;-79
2022/12/23 04:40:15;;;;;;;12.05;7.78;;;;;;;7.98;97.91;99225.75;10632079;27;20059;-78
2022/12/23 04:45:17;;;;;;;6.50;5.03;;;;;;;7.80;99.82;99222.88;10642537;27;20046;-79
2022/12/23 04:50:21;;;;;;;9.55;7.05;;;;;;;8.09;98.10;99216.75;10627651;27;20046;-79
2022/12/23 04:55:24;;;;;;;8.73;5.93;;;;;;;7.71;100.00;99211.16;10623130;27;20039;-80
2022/12/23 05:00:27;;;;;;;11.07;7.57;;;;;;;7.78;99.62;99221.31;10603957;27;20066;-79
2022/12/23 05:05:42;;;;;;;11.00;6.75;;;;;;;7.90;99.65;99218.41;10603724;27;20035;-79
2022/12/23 05:10:45;;;;;;;18.20;8.93;;;;;;;8.27;96.78;99228.47;10617116;27;20505;-79
2022/12/23 05:15:50;;;;;;;13.77;8.23;;;;;;;8.03;96.38;99233.34;10629641;27;20065;-79
2022/12/23 05:20:54;;;;;;;16.88;10.02;;;;;;;8.11;96.77;99249.56;10617058;27;20039;-79
2022/12/23 05:25:57;;;;;;;24.30;9.35;;;;;;;7.91;98.16;99251.34;10590157;28;20089;-80
2022/12/23 05:31:00;;;;;;;19.75;10.70;;;;;;;8.09;97.68;99256.88;10591070;28;20074;-78
2022/12/23 05:36:06;;;;;;;18.10;10.13;;;;;;;7.81;98.65;99267.31;10577733;28;20054;-79
2022/12/23 05:41:08;;;;;;;25.63;11.90;;;;;;;8.31;95.44;99266.50;10571095;28;20059;-79
2022/12/23 05:46:11;;;;;;;17.20;9.27;;;;;;;8.03;97.28;99276.97;10587257;28;20430;-79
2022/12/23 05:51:16;;;;;;;24.55;12.18;;;;;;;7.78;98.47;99275.59;10588269;28;20046;-79
2022/12/23 05:56:18;;;;;;;26.33;12.20;;;;;;;8.27;95.76;99282.00;10590669;27;20082;-78
2022/12/23 06:01:21;;;;;;;26.02;11.85;;;;;;;8.44;94.33;99280.47;10613591;27;20511;-79
2022/12/23 06:06:25;;;;;;;24.85;10.95;;;;;;;8.54;93.64;99284.06;10652340;27;20050;-78
2022/12/23 06:11:28;;;;;;;20.30;10.05;;;;;;;8.47;93.28;99288.25;10646538;27;20043;-79
2022/12/23 06:16:31;;;;;;;19.98;9.85;;;;;;;8.38;93.15;99310.47;10617566;27;20043;-80
2022/12/23 06:21:35;;;;;;;21.55;10.95;;;;;;;8.30;93.55;99307.63;10613386;27;20051;-79
2022/12/23 06:26:38;;;;;;;27.90;12.13;;;;;;;8.30;93.24;99311.16;10611254;28;20054;-80
2022/12/23 06:31:41;;;;;;;33.38;14.57;;;;;;;8.26;92.88;99325.78;10605613;28;20126;-80
2022/12/23 06:36:45;;;;;;;34.33;16.50;;;;;;;8.13;93.52;99325.19;10623899;27;20118;-80
2022/12/23 06:41:48;;;;;;;39.85;15.27;;;;;;;8.04;93.78;99339.38;10629932;27;20081;-80
2022/12/23 06:46:51;;;;;;;36.03;16.40;;;;;;;8.10;93.12;99346.84;10626191;27;20043;-80
2022/12/23 06:51:55;;;;;;;32.20;16.08;;;;;;;7.73;94.77;99350.00;10611183;27;20039;-80
2022/12/23 06:56:58;;;;;;;37.40;15.13;;;;;;;7.64;93.37;99354.31;10598135;27;20141;-80
2022/12/23 07:02:01;;;;;;;40.90;15.95;;;;;;;7.64;94.30;99353.47;10604887;27;20043;-78
2022/12/23 07:07:05;;;;;;;35.40;16.05;;;;;;;7.86;93.47;99361.34;10605597;27;20048;-79
2022/12/23 07:12:08;;;;;;;41.38;16.98;;;;;;;7.88;93.02;99377.28;10616638;27;20039;-79
2022/12/23 07:17:11;;;;;;;47.03;17.63;;;;;;;7.59;93.42;99383.25;10598966;28;20090;-79
2022/12/23 07:22:15;;;;;;;43.00;17.25;;;;;;;7.67;93.78;99378.09;10597009;28;20047;-80
2022/12/23 07:27:18;;;;;;;43.63;17.27;;;;;;;7.79;93.36;99372.69;10614078;27;20082;-80
2022/12/23 07:32:21;;;;;;;14.00;6.38;;;;;;;7.91;93.25;99380.53;10614730;27;20082;-80
2022/12/23 07:37:25;;;;;;;38.00;14.48;;;;;;;7.95;93.52;99389.13;10623400;27;20051;-78
2022/12/23 07:42:28;;;;;;;29.23;12.10;;;;;;;7.91;92.88;99393.88;10659541;27;20035;-79
2022/12/23 07:47:52;;;;;;;32.95;15.05;;;;;;;7.89;92.92;99398.50;10650935;27;20047;-78
2022/12/23 07:52:56;;;;;;;22.48;11.05;;;;;;;8.01;92.59;99396.63;10613088;27;20048;-79
2022/12/23 07:57:59;;;;;;;21.98;9.98;;;;;;;8.06;92.88;99393.53;10594627;28;20051;-79
2022/12/23 08:03:02;;;;;;;26.15;14.88;;;;;;;8.05;93.05;99384.69;10595457;28;20043;-79
2022/12/23 08:08:06;;;;;;;24.85;13.80;;;;;;;8.10;92.28;99400.34;10596565;28;20046;-80
2022/12/23 08:13:09;;;;;;;22.75;13.50;;;;;;;7.92;92.17;99416.13;10595228;28;20039;-79
2022/12/23 08:18:12;;;;;;;29.80;14.27;;;;;;;7.95;92.72;99423.88;10604844;27;20040;-79
2022/12/23 08:23:16;;;;;;;27.67;14.48;;;;;;;8.10;91.81;99433.28;10601716;27;20043;-79
2022/12/23 08:28:26;;;;;;;34.72;15.57;;;;;;;7.98;92.17;99431.66;10620283;27;20113;-79
2022/12/23 08:33:29;;;;;;;37.47;17.65;;;;;;;7.79;93.49;99418.13;10615141;27;20047;-79
2022/12/23 08:38:33;;;;;;;40.05;17.45;;;;;;;7.82;92.30;99432.13;10627623;27;20039;-79
2022/12/23 08:43:36;;;;;;;41.28;20.58;;;;;;;7.89;92.71;99432.44;10611755;27;20046;-79
2022/12/23 08:48:39;;;;;;;44.92;19.50;;;;;;;7.87;92.99;99431.69;10612458;27;20047;-78
2022/12/23 08:53:55;;;;;;;44.72;19.95;;;;;;;8.02;92.19;99437.59;10619586;27;20043;-78
2022/12/23 08:59:03;;;;;;;43.30;19.63;;;;;;;7.95;91.62;99437.25;10601261;28;20047;-79
2022/12/23 09:04:07;;;;;;;47.40;23.27;;;;;;;7.93;92.08;99442.75;10598054;28;20043;-79
2022/12/23 09:09:13;;;;;;;44.30;19.63;;;;;;;7.81;92.80;99451.78;10594826;28;20077;-79
2022/12/23 09:14:16;;;;;;;47.75;21.35;;;;;;;7.90;92.67;99460.88;10609753;27;20118;-79
2022/12/23 09:19:19;;;;;;;38.70;19.60;;;;;;;8.06;92.28;99445.19;10609567;27;20039;-78
2022/12/23 09:24:23;;;;;;;38.10;18.35;;;;;;;8.08;91.70;99448.59;10616109;27;20051;-79
2022/12/23 09:29:26;;;;;;;37.85;20.38;;;;;;;8.28;90.49;99448.72;10603574;27;20408;-79
2022/12/23 09:34:29;;;;;;;38.17;19.70;;;;;;;8.37;90.53;99443.44;10608629;27;20047;-78
2022/12/23 09:39:33;;;;;;;37.08;19.42;;;;;;;8.10;90.78;99456.50;10618356;27;20083;-78
2022/12/23 09:44:51;;;;;;;35.53;18.95;;;;;;;8.26;90.33;99464.91;10627070;27;20031;-79
2022/12/23 09:49:58;;;;;;;37.92;20.52;;;;;;;8.40;89.36;99461.03;10614894;27;20047;-79
2022/12/23 09:55:02;;;;;;;39.47;19.05;;;;;;;8.38;89.51;99461.16;10628427;27;20039;-79
2022/12/23 10:00:12;;;;;;;37.40;20.67;;;;;;;8.54;87.89;99439.31;10628512;27;20047;-79
2022/12/23 10:05:23;;;;;;;41.75;19.92;;;;;;;8.45;87.84;99437.41;10594102;28;20051;-79
2022/12/23 10:10:34;;;;;;;37.50;20.88;;;;;;;8.49;87.92;99427.31;10590890;28;20070;-77
2022/12/23 10:15:41;;;;;;;39.50;20.33;;;;;;;8.71;88.17;99421.75;10609373;27;20127;-79
2022/12/23 10:20:49;;;;;;;37.40;20.63;;;;;;;8.60;87.59;99420.03;10615204;27;20054;-79
2022/12/23 10:25:54;;;;;;;37.08;19.88;;;;;;;8.85;86.46;99415.16;10591763;28;20044;-79
2022/12/23 10:31:03;;;;;;;35.50;20.10;;;;;;;8.94;86.28;99411.69;10589027;28;20096;-79
2022/12/23 10:36:37;;;;;;;35.45;20.38;;;;;;;8.41;86.56;99419.91;10611866;28;20043;-80
2022/12/23 10:41:48;;;;;;;32.90;19.15;;;;;;;9.13;86.21;99410.00;10615596;28;20035;-79
2022/12/23 10:47:00;;;;;;;36.10;19.35;;;;;;;9.15;86.36;99400.84;10615663;28;20080;-79
2022/12/23 10:52:12;;;;;;;32.78;19.35;;;;;;;9.25;85.40;99400.88;10611246;28;20050;-79
2022/12/23 10:57:18;;;;;;;38.57;20.47;;;;;;;9.25;84.62;99403.56;10602212;28;20079;-78
2022/12/23 11:02:43;;;;;;;32.88;18.38;;;;;;;9.16;84.83;99399.00;10599417;28;20044;-78
2022/12/23 11:07:46;;;;;;;30.40;18.20;;;;;;;8.89;84.69;99405.91;10604027;28;20063;-77
2022/12/23 11:12:53;;;;;;;32.67;16.98;;;;;;;8.93;84.56;99393.06;10595820;28;20035;-79
2022/12/23 11:18:01;;;;;;;30.83;17.92;;;;;;;8.95;84.56;99386.59;10599727;27;20035;-77
2022/12/23 11:23:07;;;;;;;29.25;17.67;;;;;;;8.88;83.71;99377.41;10601819;27;20456;-78
2022/12/23 11:28:16;;;;;;;29.25;17.23;;;;;;;8.75;84.02;99383.03;10598652;27;20046;-78
2022/12/23 11:33:24;;;;;;;28.60;17.30;;;;;;;8.75;84.23;99372.31;10586626;28;20063;-78
2022/12/23 11:38:26;;;;;;;31.20;17.63;;;;;;;8.89;85.03;99354.16;10605644;27;20062;-78
2022/12/23 11:43:32;;;;;;;28.13;17.10;;;;;;;8.91;84.69;99344.16;10616461;27;20134;-77
2022/12/23 11:48:35;;;;;;;30.35;18.15;;;;;;;9.01;84.97;99329.78;10604521;27;20088;-78
2022/12/23 11:53:42;;;;;;;32.33;17.73;;;;;;;9.11;85.48;99327.13;10608707;27;20369;-78
2022/12/23 11:58:51;;;;;;;30.23;17.45;;;;;;;9.20;85.46;99317.38;10602198;27;20081;-78
2022/12/23 12:03:57;;;;;;;31.58;17.48;;;;;;;9.34;87.07;99319.63;10600559;27;20074;-77
2022/12/23 12:09:04;;;;;;;27.98;16.05;;;;;;;9.23;85.14;99298.34;10604514;27;20047;-79
2022/12/23 12:14:10;;;;;;;29.67;17.20;;;;;;;9.14;86.40;99283.13;10602403;27;20039;-78
2022/12/23 12:19:20;;;;;;;27.20;17.33;;;;;;;9.12;86.65;99275.22;10601065;27;20043;-78
2022/12/23 12:24:27;;;;;;;30.77;17.52;;;;;;;9.13;86.72;99271.53;10611932;27;20406;-77
2022/12/23 12:29:37;;;;;;;29.85;17.67;;;;;;;9.12;86.71;99267.19;10599285;27;20035;-78
2022/12/23 12:34:49;;;;;;;33.33;17.45;;;;;;;9.03;86.66;99262.69;10598669;27;20079;-77
2022/12/23 12:39:56;;;;;;;36.95;20.10;;;;;;;8.99;86.78;99266.63;10601796;27;20039;-78
2022/12/23 12:45:13;;;;;;;32.15;18.08;;;;;;;8.87;86.36;99259.72;10596355;27;20502;-79
2022/12/23 12:50:20;;;;;;;30.17;16.50;;;;;;;8.60;86.10;99262.09;10596908;27;20080;-79
2022/12/23 12:55:28;;;;;;;34.63;18.25;;;;;;;8.55;86.82;99263.50;10594054;27;20050;-79
2022/12/23 13:00:45;;;;;;;36.13;20.83;;;;;;;8.55;87.27;99252.78;10610351;27;20155;-78
2022/12/23 13:05:59;;;;;;;47.45;24.02;;;;;;;8.55;87.99;99253.63;10612073;27;20024;-79
2022/12/23 13:11:09;;;;;;;50.20;23.73;;;;;;;8.60;88.02;99229.13;10608302;27;20304;-78
2022/12/23 13:16:23;;;;;;;55.00;25.05;;;;;;;8.52;88.24;99227.16;10611244;27;20042;-78
2022/12/23 13:21:31;;;;;;;54.28;24.55;;;;;;;8.50;88.26;99217.56;10611608;27;20399;-78
2022/12/23 13:26:38;;;;;;;48.83;22.48;;;;;;;8.43;88.38;99200.34;10610081;27;20036;-78
2022/12/23 13:31:49;;;;;;;42.03;20.10;;;;;;;8.29;88.38;99212.31;10608239;27;20039;-77
2022/12/23 13:36:57;;;;;;;38.25;18.77;;;;;;;8.20;88.65;99210.44;10608720;27;20107;-78
2022/12/23 13:42:03;;;;;;;40.58;18.83;;;;;;;8.23;88.85;99210.16;10591635;27;20089;-78
2022/12/23 13:47:18;;;;;;;48.10;23.85;;;;;;;8.19;88.83;99198.91;10598407;27;20507;-77
2022/12/23 13:52:29;;;;;;;52.20;24.73;;;;;;;8.22;89.12;99182.56;10578803;28;20089;-78
2022/12/23 13:57:48;;;;;;;61.50;25.10;;;;;;;8.14;89.86;99169.88;10592257;27;20044;-78
2022/12/23 14:03:04;;;;;;;56.55;23.50;;;;;;;8.11;90.06;99164.81;10593994;27;20388;-77
2022/12/23 14:08:21;;;;;;;58.05;23.75;;;;;;;8.08;90.19;99162.41;10608788;27;20066;-78
2022/12/23 14:13:27;;;;;;;56.40;23.05;;;;;;;7.92;93.02;99154.91;10572010;27;20054;-77
2022/12/23 14:18:48;;;;;;;58.60;23.35;;;;;;;7.86;94.76;99152.81;10609477;27;20039;-78
2022/12/23 14:24:13;;;;;;;60.47;23.48;;;;;;;7.88;92.85;99133.97;10581133;28;20488;-79
2022/12/23 14:29:34;;;;;;;65.00;24.13;;;;;;;7.79;92.26;99119.59;10587637;28;20044;-80
2022/12/23 14:34:58;;;;;;;64.60;22.95;;;;;;;7.77;94.29;99126.06;10585822;28;20044;-80
2022/12/23 14:40:34;;;;;;;71.78;24.05;;;;;;;7.76;94.01;99113.66;10601728;28;20092;-80
2022/12/23 14:45:42;;;;;;;76.00;23.83;;;;;;;7.84;93.58;99106.63;10605894;28;20047;-79
2022/12/23 14:50:57;;;;;;;71.60;23.25;;;;;;;7.92;92.06;99100.59;10609778;28;20077;-80
2022/12/23 14:56:11;;;;;;;66.28;23.48;;;;;;;7.81;92.87;99082.84;10601542;27;20093;-80
2022/12/23 15:01:16;;;;;;;60.65;21.35;;;;;;;7.85;93.41;99083.44;10598782;28;20081;-80
2022/12/23 15:06:29;;;;;;;68.07;25.75;;;;;;;7.80;92.33;99075.00;10602264;28;20128;-80
2022/12/23 15:11:34;;;;;;;80.18;25.80;;;;;;;7.73;96.28;99055.97;10605075;28;20039;-80
2022/12/23 15:16:43;;;;;;;87.00;30.40;;;;;;;7.82;92.45;99049.81;10609402;27;20500;-80
2022/12/23 15:21:48;;;;;;;95.00;29.52;;;;;;;7.89;92.20;99066.13;10638884;27;20078;-80
2022/12/23 15:27:02;;;;;;;81.32;28.73;;;;;;;7.94;92.17;99079.94;10620079;27;20063;-80
2022/12/23 15:32:27;;;;;;;85.43;28.80;;;;;;;7.95;92.04;99063.75;10628428;27;20087;-79
2022/12/23 15:37:32;;;;;;;73.63;25.80;;;;;;;7.89;91.94;99048.25;10624453;27;20034;-81
2022/12/23 15:42:37;;;;;;;87.88;27.50;;;;;;;7.89;92.50;99044.75;10616414;27;20043;-80
2022/12/23 15:47:41;;;;;;;88.97;29.30;;;;;;;7.88;92.64;99025.19;10610814;27;20043;-79
2022/12/23 15:52:49;;;;;;;79.60;27.85;;;;;;;7.89;92.18;99028.69;10619877;27;20048;-79
2022/12/23 15:57:52;;;;;;;71.95;28.55;;;;;;;7.83;92.19;99023.91;10623556;27;20038;-80
2022/12/23 16:02:57;;;;;;;78.53;27.77;;;;;;;7.78;92.26;99021.66;10623075;27;20039;-79
2022/12/23 16:08:21;;;;;;;81.88;28.23;;;;;;;7.68;92.83;99023.50;10631101;27;20035;-79
2022/12/23 16:13:32;;;;;;;88.63;30.02;;;;;;;7.66;93.51;99026.28;10603425;27;20047;-79
2022/12/23 16:18:42;;;;;;;91.72;29.33;;;;;;;7.68;93.74;99026.16;10609805;27;20046;-81
2022/12/23 16:23:52;;;;;;;96.00;27.75;;;;;;;7.72;93.52;99011.53;10617708;27;20050;-80
2022/12/23 16:28:59;;;;;;;81.15;27.35;;;;;;;7.79;92.34;99004.66;10610525;27;20062;-81
2022/12/23 16:34:07;;;;;;;82.38;25.88;;;;;;;7.66;92.86;98988.03;10621843;27;20054;-79
2022/12/23 16:39:20;;;;;;;68.07;25.02;;;;;;;7.63;92.93;98980.31;10626018;27;20062;-81
2022/12/23 16:44:23;;;;;;;80.18;26.73;;;;;;;7.62;93.16;98968.75;10614478;27;20043;-80
2022/12/23 16:49:28;;;;;;;69.05;25.05;;;;;;;7.57;93.23;98948.78;10610307;27;20035;-81
2022/12/23 16:54:37;;;;;;;62.97;27.30;;;;;;;7.61;93.13;98939.50;10605590;27;20447;-80
2022/12/23 16:59:40;;;;;;;76.10;32.03;;;;;;;7.53;93.41;98921.50;10617613;27;20036;-79
2022/12/23 17:04:43;;;;;;;78.45;32.58;;;;;;;7.51;93.29;98915.44;10605975;27;20074;-78
2022/12/23 17:09:47;;;;;;;72.22;28.63;;;;;;;7.52;93.13;98914.47;10609969;27;20074;-80
2022/12/23 17:14:50;;;;;;;63.53;25.13;;;;;;;7.49;93.55;98904.91;10592456;28;20048;-79
2022/12/23 17:19:55;;;;;;;60.97;25.25;;;;;;;7.48;93.50;98899.69;10607741;27;20043;-79
2022/12/23 17:24:59;;;;;;;72.00;25.00;;;;;;;7.35;93.75;98893.78;10590856;28;20043;-80
2022/12/23 17:30:02;;;;;;;56.30;22.98;;;;;;;7.49;93.68;98880.03;10590353;28;20706;-79
2022/12/23 17:35:05;;;;;;;54.47;22.67;;;;;;;7.54;93.34;98901.81;10593961;27;20069;-79
2022/12/23 17:40:12;;;;;;;55.08;22.85;;;;;;;7.56;93.33;98883.81;10613409;27;20067;-79
2022/12/23 17:45:23;;;;;;;61.97;23.55;;;;;;;7.55;93.28;98890.16;10616512;27;20087;-79
2022/12/23 17:50:27;;;;;;;55.63;23.48;;;;;;;7.57;92.93;98868.59;10615477;27;20064;-80
2022/12/23 17:55:31;;;;;;;62.88;25.67;;;;;;;7.61;93.23;98889.56;10618743;27;20047;-79
2022/12/23 18:00:34;;;;;;;53.70;23.33;;;;;;;7.64;93.23;98902.66;10612768;27;20031;-79
2022/12/23 18:05:37;;;;;;;55.90;22.98;;;;;;;7.62;93.10;98885.06;10619673;27;20120;-79
2022/12/23 18:10:41;;;;;;;58.03;22.38;;;;;;;7.73;92.29;98899.16;10586690;27;20043;-79
2022/12/23 18:15:45;;;;;;;55.97;24.00;;;;;;;7.82;92.62;98902.78;10611268;27;20569;-79
2022/12/23 18:20:51;;;;;;;48.63;23.63;;;;;;;7.77;92.29;98888.16;10605357;27;20043;-79
2022/12/23 18:25:56;;;;;;;51.72;22.80;;;;;;;7.80;92.10;98917.28;10612173;27;20047;-76
2022/12/23 18:30:58;;;;;;;54.50;21.63;;;;;;;7.83;92.31;98898.28;10595551;27;20047;-79
2022/12/23 18:36:01;;;;;;;45.35;20.95;;;;;;;7.89;92.38;98889.69;10607186;28;20039;-79
2022/12/23 18:41:06;;;;;;;51.63;23.70;;;;;;;7.88;92.26;98879.97;10601203;28;20480;-79
2022/12/23 18:46:08;;;;;;;47.40;21.80;;;;;;;7.83;92.23;98900.94;10608957;28;20464;-79
2022/12/23 18:51:14;;;;;;;41.88;19.35;;;;;;;7.86;92.54;98901.50;10605003;28;20035;-78
2022/12/23 18:56:20;;;;;;;46.17;21.55;;;;;;;7.90;92.24;98894.06;10598822;28;20042;-79
2022/12/23 19:01:23;;;;;;;50.72;22.10;;;;;;;7.88;92.38;98882.66;10601676;28;20035;-79
2022/12/23 19:06:26;;;;;;;61.70;24.33;;;;;;;7.90;92.35;98892.22;10614166;28;20051;-77
2022/12/23 19:11:31;;;;;;;44.28;22.13;;;;;;;7.91;92.07;98909.94;10647706;28;20043;-78
2022/12/23 19:16:34;;;;;;;49.70;23.05;;;;;;;7.93;92.22;98904.47;10613736;28;20043;-79
2022/12/23 19:21:36;;;;;;;39.10;20.50;;;;;;;7.94;92.15;98920.34;10596973;28;20054;-78
2022/12/23 19:26:41;;;;;;;43.13;20.80;;;;;;;7.98;92.45;98938.78;10614574;28;20039;-78
2022/12/23 19:31:44;;;;;;;40.80;21.42;;;;;;;8.00;92.34;98939.47;10599986;28;20067;-79
2022/12/23 19:36:46;;;;;;;49.58;22.50;;;;;;;7.95;91.92;98932.75;10624893;28;20504;-78
2022/12/23 19:41:51;;;;;;;45.33;23.38;;;;;;;7.85;91.67;98953.28;10632466;28;20039;-77
2022/12/23 19:46:54;;;;;;;47.55;19.55;;;;;;;7.64;91.42;98957.94;10628182;28;20035;-77
2022/12/23 19:51:57;;;;;;;51.13;18.48;;;;;;;7.39;92.59;98970.00;10642468;27;20051;-80
2022/12/23 19:57:01;;;;;;;41.42;20.60;;;;;;;7.64;92.45;98976.63;10659911;27;20023;-80
2022/12/23 20:02:04;;;;;;;38.88;19.63;;;;;;;7.67;91.76;98973.69;10651269;27;20118;-80
2022/12/23 20:07:07;;;;;;;38.17;19.30;;;;;;;7.72;91.89;98984.81;10662466;27;20040;-81
2022/12/23 20:12:12;;;;;;;32.70;17.60;;;;;;;7.64;92.07;98990.84;10635359;27;20104;-79
2022/12/23 20:17:15;;;;;;;38.10;19.33;;;;;;;7.76;92.49;98974.66;10615884;27;20047;-79
2022/12/23 20:22:18;;;;;;;48.13;23.25;;;;;;;7.81;92.12;98989.28;10615176;27;20061;-80
2022/12/23 20:27:22;;;;;;;53.53;23.17;;;;;;;7.81;91.85;98991.97;10618952;27;20138;-79
2022/12/23 20:32:30;;;;;;;40.92;20.98;;;;;;;7.77;91.91;98985.22;10622066;27;20045;-78
2022/12/23 20:37:32;;;;;;;42.10;20.60;;;;;;;7.78;91.82;98991.41;10620880;27;20503;-79
2022/12/23 20:42:37;;;;;;;37.28;20.60;;;;;;;7.73;91.73;98995.38;10615088;27;20048;-80
2022/12/23 20:47:39;;;;;;;39.97;20.65;;;;;;;7.58;92.06;99012.78;10617741;27;20040;-80
2022/12/23 20:52:42;;;;;;;42.00;21.15;;;;;;;7.57;92.64;99023.59;10630495;27;20039;-79
2022/12/23 20:57:46;;;;;;;38.45;19.98;;;;;;;7.42;93.59;99026.66;10606883;27;20401;-80
2022/12/23 21:02:49;;;;;;;41.85;22.10;;;;;;;7.24;95.21;99023.81;10599081;27;20106;-80
2022/12/23 21:07:52;;;;;;;47.83;24.80;;;;;;;7.35;94.99;99028.22;10607108;27;20058;-80
2022/12/23 21:12:56;;;;;;;57.05;27.92;;;;;;;7.58;95.35;99044.84;10610318;27;20042;-80
2022/12/23 21:18:00;;;;;;;51.42;26.48;;;;;;;7.52;96.23;99040.06;10606644;27;20112;-80
2022/12/23 21:23:02;;;;;;;52.35;24.75;;;;;;;7.40;97.20;99041.97;10588766;28;20485;-80
2022/12/23 21:28:06;;;;;;;56.40;26.17;;;;;;;7.60;97.24;99058.09;10576968;28;20047;-80
2022/12/23 21:33:09;;;;;;;49.70;23.55;;;;;;;7.51;98.21;99057.06;10588282;28;20523;-80
2022/12/23 21:38:12;;;;;;;42.70;19.75;;;;;;;7.62;97.38;99064.13;10594853;27;20044;-80
2022/12/23 21:43:16;;;;;;;45.00;23.67;;;;;;;7.67;98.12;99059.22;10611800;27;20085;-80
2022/12/23 21:48:19;;;;;;;47.47;24.95;;;;;;;7.93;96.71;99070.22;10617442;27;20047;-81
2022/12/23 21:53:22;;;;;;;56.05;24.60;;;;;;;7.93;97.60;99079.09;10619313;27;20051;-79
2022/12/23 21:58:26;;;;;;;62.30;25.20;;;;;;;7.78;99.82;99091.16;10597752;27;20408;-80
2022/12/23 22:03:29;;;;;;;55.03;20.88;;;;;;;7.63;100.00;99095.22;10622857;27;20043;-80
2022/12/23 22:08:31;;;;;;;42.50;15.98;;;;;;;7.78;98.06;99101.00;10608166;27;20569;-80
2022/12/23 22:13:36;;;;;;;34.95;15.77;;;;;;;7.87;99.02;99117.09;10616566;27;20043;-80
2022/12/23 22:18:40;;;;;;;45.20;17.00;;;;;;;7.93;98.71;99119.19;10609636;27;20047;-80
2022/12/23 22:23:45;;;;;;;32.97;15.05;;;;;;;7.85;100.00;99115.53;10609348;27;20042;-80
2022/12/23 22:28:49;;;;;;;31.15;12.23;;;;;;;7.93;99.93;99121.03;10608037;27;20074;-80
2022/12/23 22:33:52;;;;;;;39.15;14.07;;;;;;;8.08;99.21;99132.16;10615138;28;20043;-80
2022/12/23 22:38:58;;;;;;;30.52;13.02;;;;;;;8.21;100.00;99122.03;10606055;28;20073;-81
2022/12/23 22:44:02;;;;;;;32.13;12.50;;;;;;;8.04;99.31;99126.25;10602771;28;20051;-79
2022/12/23 22:49:05;;;;;;;22.73;9.93;;;;;;;8.26;98.96;99127.81;10614454;28;20069;-81
2022/12/23 22:54:08;;;;;;;25.10;9.40;;;;;;;8.32;98.54;99135.28;10612447;28;20058;-79
2022/12/23 22:59:19;;;;;;;32.38;11.55;;;;;;;8.42;97.98;99132.63;10612046;28;20097;-80
2022/12/23 23:04:23;;;;;;;33.05;12.23;;;;;;;8.53;98.25;99137.84;10606947;28;20043;-80
2022/12/23 23:09:25;;;;;;;23.40;11.15;;;;;;;8.12;99.75;99142.44;10603094;28;20040;-80
2022/12/23 23:14:51;;;;;;;28.23;10.30;;;;;;;8.37;99.53;99149.09;10611008;28;20086;-80
2022/12/23 23:19:53;;;;;;;14.65;6.97;;;;;;;8.29;100.00;99156.97;10599941;27;20042;-79
2022/12/23 23:24:56;;;;;;;18.50;7.20;;;;;;;8.36;99.02;99162.59;10607097;27;20071;-80
2022/12/23 23:30:00;;;;;;;10.85;4.68;;;;;;;8.39;99.95;99160.50;10603546;27;20492;-79
2022/12/23 23:35:03;;;;;;;14.50;7.40;;;;;;;8.33;99.38;99174.41;10606197;27;20050;-79
2022/12/23 23:40:12;;;;;;;11.48;4.60;;;;;;;8.11;99.92;99161.31;10611161;27;20548;-80
2022/12/23 23:45:17;;;;;;;13.07;4.78;;;;;;;8.41;97.09;99192.44;10609605;27;20066;-79
2022/12/23 23:50:19;;;;;;;15.90;6.53;;;;;;;8.53;96.92;99190.50;10606688;27;20039;-79
2022/12/23 23:55:22;;;;;;;13.15;5.20;;;;;;;8.29;97.41;99193.59;10617539;27;20035;-79
